sensor_id;sensor_type;location;lat;lon;timestamp;P1;durP1;ratioP1;P2;durP2;ratioP2
13279;SDS011;6708;49.814;8.652;2023-03-14T00:01:35;0.50;;;0.30;;
13279;SDS011;6708;49.814;8.652;2023-03-14T00:04:03;0.50;;;0.50;;
13279;SDS011;6708;49.814;8.652;2023-03-14T00:06:32;1.80;;;0.33;;
13279;SDS011;6708;49.814;8.652;2023-03-14T00:09:00;0.30;;;0.30;;
13279;SDS011;6708;49.814;8.652;2023-03-14T00:11:28;0.23;;;0.23;;
13279;SDS011;6708;49.814;8.652;2023-03-14T00:14:00;0.60;;;0.30;;
13279;SDS011;6708;49.814;8.652;2023-03-14T00:16:28;0.30;;;0.30;;
13279;SDS011;6708;49.814;8.652;2023-03-14T00:18:57;0.40;;;0.40;;
13279;SDS011;6708;49.814;8.652;2023-03-14T00:21:26;0.37;;;0.37;;
13279;SDS011;6708;49.814;8.652;2023-03-14T00:23:55;0.57;;;0.57;;
13279;SDS011;6708;49.814;8.652;2023-03-14T00:26:23;0.57;;;0.57;;
13279;SDS011;6708;49.814;8.652;2023-03-14T00:28:52;0.50;;;0.43;;
13279;SDS011;6708;49.814;8.652;2023-03-14T00:31:24;0.80;;;0.43;;
13279;SDS011;6708;49.814;8.652;2023-03-14T00:33:52;0.37;;;0.37;;
13279;SDS011;6708;49.814;8.652;2023-03-14T00:36:21;0.77;;;0.77;;
13279;SDS011;6708;49.814;8.652;2023-03-14T00:38:50;0.83;;;0.70;;
13279;SDS011;6708;49.814;8.652;2023-03-14T00:41:19;0.50;;;0.50;;
13279;SDS011;6708;49.814;8.652;2023-03-14T00:43:50;0.40;;;0.40;;
13279;SDS011;6708;49.814;8.652;2023-03-14T00:46:19;0.30;;;0.30;;
13279;SDS011;6708;49.814;8.652;2023-03-14T00:48:52;0.50;;;0.30;;
13279;SDS011;6708;49.814;8.652;2023-03-14T00:51:22;0.40;;;0.37;;
13279;SDS011;6708;49.814;8.652;2023-03-14T00:53:50;1.17;;;0.40;;
13279;SDS011;6708;49.814;8.652;2023-03-14T00:56:21;0.37;;;0.37;;
13279;SDS011;6708;49.814;8.652;2023-03-14T00:58:53;0.30;;;0.30;;
13279;SDS011;6708;49.814;8.652;2023-03-14T01:01:21;0.47;;;0.47;;
13279;SDS011;6708;49.814;8.652;2023-03-14T01:03:53;1.33;;;0.70;;
13279;SDS011;6708;49.814;8.652;2023-03-14T01:06:22;0.67;;;0.47;;
13279;SDS011;6708;49.814;8.652;2023-03-14T01:08:52;0.50;;;0.50;;
13279;SDS011;6708;49.814;8.652;2023-03-14T01:11:21;0.40;;;0.40;;
13279;SDS011;6708;49.814;8.652;2023-03-14T01:13:51;0.70;;;0.70;;
13279;SDS011;6708;49.814;8.652;2023-03-14T01:16:20;0.60;;;0.60;;
13279;SDS011;6708;49.814;8.652;2023-03-14T01:18:52;1.60;;;0.50;;
13279;SDS011;6708;49.814;8.652;2023-03-14T01:21:22;0.27;;;0.27;;
13279;SDS011;6708;49.814;8.652;2023-03-14T01:23:52;1.97;;;0.47;;
13279;SDS011;6708;49.814;8.652;2023-03-14T01:26:22;0.40;;;0.40;;
13279;SDS011;6708;49.814;8.652;2023-03-14T01:28:52;1.10;;;0.60;;
13279;SDS011;6708;49.814;8.652;2023-03-14T01:31:22;2.03;;;0.50;;
13279;SDS011;6708;49.814;8.652;2023-03-14T01:33:53;2.27;;;0.67;;
13279;SDS011;6708;49.814;8.652;2023-03-14T01:36:22;2.13;;;1.00;;
13279;SDS011;6708;49.814;8.652;2023-03-14T01:38:50;0.90;;;0.90;;
13279;SDS011;6708;49.814;8.652;2023-03-14T01:41:20;1.27;;;0.63;;
13279;SDS011;6708;49.814;8.652;2023-03-14T01:43:52;0.77;;;0.47;;
13279;SDS011;6708;49.814;8.652;2023-03-14T01:46:22;0.47;;;0.40;;
13279;SDS011;6708;49.814;8.652;2023-03-14T01:51:45;0.73;;;0.40;;
13279;SDS011;6708;49.814;8.652;2023-03-14T01:54:18;0.60;;;0.53;;
13279;SDS011;6708;49.814;8.652;2023-03-14T01:56:49;0.40;;;0.40;;
13279;SDS011;6708;49.814;8.652;2023-03-14T01:59:21;0.87;;;0.60;;
13279;SDS011;6708;49.814;8.652;2023-03-14T02:01:49;3.37;;;0.57;;
13279;SDS011;6708;49.814;8.652;2023-03-14T02:04:23;0.67;;;0.60;;
13279;SDS011;6708;49.814;8.652;2023-03-14T02:06:52;0.70;;;0.70;;
13279;SDS011;6708;49.814;8.652;2023-03-14T02:09:28;0.63;;;0.60;;
13279;SDS011;6708;49.814;8.652;2023-03-14T02:11:58;0.50;;;0.50;;
13279;SDS011;6708;49.814;8.652;2023-03-14T02:14:49;0.40;;;0.40;;
13279;SDS011;6708;49.814;8.652;2023-03-14T02:17:39;0.33;;;0.33;;
13279;SDS011;6708;49.814;8.652;2023-03-14T02:20:24;0.37;;;0.33;;
13279;SDS011;6708;49.814;8.652;2023-03-14T02:22:57;0.57;;;0.57;;
13279;SDS011;6708;49.814;8.652;2023-03-14T02:25:30;0.40;;;0.40;;
13279;SDS011;6708;49.814;8.652;2023-03-14T02:28:08;0.43;;;0.40;;
13279;SDS011;6708;49.814;8.652;2023-03-14T02:30:37;1.67;;;0.60;;
13279;SDS011;6708;49.814;8.652;2023-03-14T02:33:06;0.50;;;0.33;;
13279;SDS011;6708;49.814;8.652;2023-03-14T02:35:37;0.37;;;0.37;;
13279;SDS011;6708;49.814;8.652;2023-03-14T02:38:10;2.10;;;0.50;;
13279;SDS011;6708;49.814;8.652;2023-03-14T02:40:44;0.50;;;0.50;;
13279;SDS011;6708;49.814;8.652;2023-03-14T02:43:15;1.03;;;0.50;;
13279;SDS011;6708;49.814;8.652;2023-03-14T02:45:49;0.67;;;0.40;;
13279;SDS011;6708;49.814;8.652;2023-03-14T02:48:21;0.40;;;0.30;;
13279;SDS011;6708;49.814;8.652;2023-03-14T02:50:53;1.07;;;0.60;;
13279;SDS011;6708;49.814;8.652;2023-03-14T02:53:25;0.80;;;0.50;;
13279;SDS011;6708;49.814;8.652;2023-03-14T02:55:57;3.60;;;0.47;;
13279;SDS011;6708;49.814;8.652;2023-03-14T02:58:29;0.53;;;0.30;;
13279;SDS011;6708;49.814;8.652;2023-03-14T03:01:06;0.50;;;0.50;;
13279;SDS011;6708;49.814;8.652;2023-03-14T03:03:34;0.83;;;0.50;;
13279;SDS011;6708;49.814;8.652;2023-03-14T03:06:03;0.40;;;0.40;;
13279;SDS011;6708;49.814;8.652;2023-03-14T03:08:31;0.37;;;0.30;;
13279;SDS011;6708;49.814;8.652;2023-03-14T03:11:00;0.30;;;0.30;;
13279;SDS011;6708;49.814;8.652;2023-03-14T03:13:45;1.13;;;0.57;;
13279;SDS011;6708;49.814;8.652;2023-03-14T03:16:14;1.80;;;0.50;;
13279;SDS011;6708;49.814;8.652;2023-03-14T03:18:42;1.90;;;0.47;;
13279;SDS011;6708;49.814;8.652;2023-03-14T03:21:11;0.40;;;0.40;;
13279;SDS011;6708;49.814;8.652;2023-03-14T03:23:42;0.50;;;0.33;;
13279;SDS011;6708;49.814;8.652;2023-03-14T03:26:10;1.03;;;0.70;;
13279;SDS011;6708;49.814;8.652;2023-03-14T03:28:41;1.37;;;0.70;;
13279;SDS011;6708;49.814;8.652;2023-03-14T03:31:12;0.47;;;0.40;;
13279;SDS011;6708;49.814;8.652;2023-03-14T03:33:40;0.50;;;0.37;;
13279;SDS011;6708;49.814;8.652;2023-03-14T03:36:09;1.83;;;0.57;;
13279;SDS011;6708;49.814;8.652;2023-03-14T03:38:39;0.83;;;0.57;;
13279;SDS011;6708;49.814;8.652;2023-03-14T03:41:08;0.60;;;0.50;;
13279;SDS011;6708;49.814;8.652;2023-03-14T03:43:37;1.63;;;0.40;;
13279;SDS011;6708;49.814;8.652;2023-03-14T03:46:10;1.40;;;0.50;;
13279;SDS011;6708;49.814;8.652;2023-03-14T03:48:39;0.53;;;0.50;;
13279;SDS011;6708;49.814;8.652;2023-03-14T03:51:07;1.23;;;0.53;;
13279;SDS011;6708;49.814;8.652;2023-03-14T03:53:40;1.93;;;0.50;;
13279;SDS011;6708;49.814;8.652;2023-03-14T03:56:11;0.70;;;0.50;;
13279;SDS011;6708;49.814;8.652;2023-03-14T03:58:41;0.47;;;0.40;;
13279;SDS011;6708;49.814;8.652;2023-03-14T04:01:12;1.30;;;0.50;;
13279;SDS011;6708;49.814;8.652;2023-03-14T04:03:41;0.50;;;0.50;;
13279;SDS011;6708;49.814;8.652;2023-03-14T04:06:10;1.43;;;0.50;;
13279;SDS011;6708;49.814;8.652;2023-03-14T04:08:42;0.67;;;0.50;;
13279;SDS011;6708;49.814;8.652;2023-03-14T04:11:23;0.63;;;0.60;;
13279;SDS011;6708;49.814;8.652;2023-03-14T04:14:02;0.83;;;0.63;;
13279;SDS011;6708;49.814;8.652;2023-03-14T04:16:33;0.90;;;0.63;;
13279;SDS011;6708;49.814;8.652;2023-03-14T04:19:10;1.43;;;0.53;;
13279;SDS011;6708;49.814;8.652;2023-03-14T04:21:39;0.60;;;0.60;;
13279;SDS011;6708;49.814;8.652;2023-03-14T04:24:14;3.57;;;0.53;;
13279;SDS011;6708;49.814;8.652;2023-03-14T04:26:46;0.83;;;0.50;;
13279;SDS011;6708;49.814;8.652;2023-03-14T04:29:15;1.87;;;0.90;;
13279;SDS011;6708;49.814;8.652;2023-03-14T04:31:47;0.57;;;0.47;;
13279;SDS011;6708;49.814;8.652;2023-03-14T04:34:15;4.43;;;1.10;;
13279;SDS011;6708;49.814;8.652;2023-03-14T04:36:50;1.00;;;0.90;;
13279;SDS011;6708;49.814;8.652;2023-03-14T04:39:25;0.70;;;0.70;;
13279;SDS011;6708;49.814;8.652;2023-03-14T04:42:03;2.13;;;0.70;;
13279;SDS011;6708;49.814;8.652;2023-03-14T04:44:32;0.93;;;0.67;;
13279;SDS011;6708;49.814;8.652;2023-03-14T04:47:03;0.60;;;0.60;;
13279;SDS011;6708;49.814;8.652;2023-03-14T04:49:32;0.90;;;0.40;;
13279;SDS011;6708;49.814;8.652;2023-03-14T04:52:01;1.27;;;0.80;;
13279;SDS011;6708;49.814;8.652;2023-03-14T04:54:32;0.90;;;0.60;;
13279;SDS011;6708;49.814;8.652;2023-03-14T04:57:00;1.50;;;0.60;;
13279;SDS011;6708;49.814;8.652;2023-03-14T04:59:31;5.73;;;1.20;;
13279;SDS011;6708;49.814;8.652;2023-03-14T05:02:13;0.80;;;0.50;;
13279;SDS011;6708;49.814;8.652;2023-03-14T05:04:53;0.77;;;0.40;;
13279;SDS011;6708;49.814;8.652;2023-03-14T05:07:42;0.90;;;0.50;;
13279;SDS011;6708;49.814;8.652;2023-03-14T05:10:29;2.37;;;0.70;;
13279;SDS011;6708;49.814;8.652;2023-03-14T05:13:29;0.90;;;0.50;;
13279;SDS011;6708;49.814;8.652;2023-03-14T05:16:17;0.60;;;0.60;;
13279;SDS011;6708;49.814;8.652;2023-03-14T05:18:53;2.10;;;0.40;;
13279;SDS011;6708;49.814;8.652;2023-03-14T05:21:42;2.20;;;0.77;;
13279;SDS011;6708;49.814;8.652;2023-03-14T05:24:39;0.60;;;0.60;;
13279;SDS011;6708;49.814;8.652;2023-03-14T05:27:29;0.77;;;0.63;;
13279;SDS011;6708;49.814;8.652;2023-03-14T05:30:09;0.57;;;0.50;;
13279;SDS011;6708;49.814;8.652;2023-03-14T05:32:59;0.57;;;0.47;;
13279;SDS011;6708;49.814;8.652;2023-03-14T05:35:56;0.43;;;0.43;;
13279;SDS011;6708;49.814;8.652;2023-03-14T05:38:50;0.73;;;0.43;;
13279;SDS011;6708;49.814;8.652;2023-03-14T05:41:48;0.60;;;0.60;;
13279;SDS011;6708;49.814;8.652;2023-03-14T05:44:26;2.57;;;0.60;;
13279;SDS011;6708;49.814;8.652;2023-03-14T05:46:54;0.80;;;0.50;;
13279;SDS011;6708;49.814;8.652;2023-03-14T05:49:32;0.50;;;0.30;;
13279;SDS011;6708;49.814;8.652;2023-03-14T05:52:29;1.47;;;0.40;;
13279;SDS011;6708;49.814;8.652;2023-03-14T05:55:24;0.73;;;0.60;;
13279;SDS011;6708;49.814;8.652;2023-03-14T05:58:07;1.13;;;0.50;;
13279;SDS011;6708;49.814;8.652;2023-03-14T06:01:10;1.17;;;0.50;;
13279;SDS011;6708;49.814;8.652;2023-03-14T06:04:01;0.97;;;0.50;;
13279;SDS011;6708;49.814;8.652;2023-03-14T06:06:29;0.60;;;0.53;;
13279;SDS011;6708;49.814;8.652;2023-03-14T06:09:02;0.47;;;0.43;;
13279;SDS011;6708;49.814;8.652;2023-03-14T06:11:32;1.77;;;0.60;;
13279;SDS011;6708;49.814;8.652;2023-03-14T06:14:01;0.53;;;0.47;;
13279;SDS011;6708;49.814;8.652;2023-03-14T06:16:30;2.73;;;0.53;;
13279;SDS011;6708;49.814;8.652;2023-03-14T06:19:01;1.13;;;0.63;;
13279;SDS011;6708;49.814;8.652;2023-03-14T06:21:30;0.40;;;0.30;;
13279;SDS011;6708;49.814;8.652;2023-03-14T06:24:00;1.13;;;0.47;;
13279;SDS011;6708;49.814;8.652;2023-03-14T06:26:37;0.40;;;0.40;;
13279;SDS011;6708;49.814;8.652;2023-03-14T06:29:06;1.13;;;0.43;;
13279;SDS011;6708;49.814;8.652;2023-03-14T06:31:34;0.63;;;0.63;;
13279;SDS011;6708;49.814;8.652;2023-03-14T06:34:05;1.30;;;0.40;;
13279;SDS011;6708;49.814;8.652;2023-03-14T06:36:34;2.27;;;0.30;;
13279;SDS011;6708;49.814;8.652;2023-03-14T06:39:05;0.30;;;0.30;;
13279;SDS011;6708;49.814;8.652;2023-03-14T06:41:36;0.37;;;0.23;;
13279;SDS011;6708;49.814;8.652;2023-03-14T06:44:05;0.70;;;0.50;;
13279;SDS011;6708;49.814;8.652;2023-03-14T06:46:34;0.20;;;0.20;;
13279;SDS011;6708;49.814;8.652;2023-03-14T06:49:02;0.50;;;0.47;;
13279;SDS011;6708;49.814;8.652;2023-03-14T06:51:32;0.80;;;0.53;;
13279;SDS011;6708;49.814;8.652;2023-03-14T06:54:06;1.97;;;0.50;;
13279;SDS011;6708;49.814;8.652;2023-03-14T06:56:36;2.40;;;0.60;;
13279;SDS011;6708;49.814;8.652;2023-03-14T06:59:07;0.83;;;0.43;;
13279;SDS011;6708;49.814;8.652;2023-03-14T07:01:36;0.90;;;0.50;;
13279;SDS011;6708;49.814;8.652;2023-03-14T07:04:08;0.73;;;0.60;;
13279;SDS011;6708;49.814;8.652;2023-03-14T07:06:41;1.43;;;0.97;;
13279;SDS011;6708;49.814;8.652;2023-03-14T07:09:15;0.70;;;0.43;;
13279;SDS011;6708;49.814;8.652;2023-03-14T07:11:54;1.60;;;0.80;;
13279;SDS011;6708;49.814;8.652;2023-03-14T07:14:22;1.63;;;0.77;;
13279;SDS011;6708;49.814;8.652;2023-03-14T07:16:51;1.23;;;0.63;;
13279;SDS011;6708;49.814;8.652;2023-03-14T07:19:22;0.77;;;0.57;;
13279;SDS011;6708;49.814;8.652;2023-03-14T07:21:51;0.50;;;0.50;;
13279;SDS011;6708;49.814;8.652;2023-03-14T07:24:26;1.17;;;0.63;;
13279;SDS011;6708;49.814;8.652;2023-03-14T07:26:54;1.03;;;0.57;;
13279;SDS011;6708;49.814;8.652;2023-03-14T07:29:22;0.60;;;0.60;;
13279;SDS011;6708;49.814;8.652;2023-03-14T07:31:51;2.33;;;0.80;;
13279;SDS011;6708;49.814;8.652;2023-03-14T07:34:20;0.67;;;0.60;;
13279;SDS011;6708;49.814;8.652;2023-03-14T07:36:49;2.97;;;0.47;;
13279;SDS011;6708;49.814;8.652;2023-03-14T07:39:17;1.40;;;0.70;;
13279;SDS011;6708;49.814;8.652;2023-03-14T07:41:48;1.27;;;0.60;;
13279;SDS011;6708;49.814;8.652;2023-03-14T07:44:35;0.83;;;0.70;;
13279;SDS011;6708;49.814;8.652;2023-03-14T07:47:03;1.13;;;0.40;;
13279;SDS011;6708;49.814;8.652;2023-03-14T07:49:32;4.93;;;0.73;;
13279;SDS011;6708;49.814;8.652;2023-03-14T07:52:00;0.80;;;0.50;;
13279;SDS011;6708;49.814;8.652;2023-03-14T07:54:29;1.43;;;0.20;;
13279;SDS011;6708;49.814;8.652;2023-03-14T07:57:00;0.23;;;0.20;;
13279;SDS011;6708;49.814;8.652;2023-03-14T07:59:29;0.90;;;0.40;;
13279;SDS011;6708;49.814;8.652;2023-03-14T08:01:57;0.33;;;0.20;;
13279;SDS011;6708;49.814;8.652;2023-03-14T08:04:26;1.50;;;0.40;;
13279;SDS011;6708;49.814;8.652;2023-03-14T08:06:55;0.50;;;0.20;;
13279;SDS011;6708;49.814;8.652;2023-03-14T08:09:23;0.73;;;0.30;;
13279;SDS011;6708;49.814;8.652;2023-03-14T08:11:52;0.30;;;0.30;;
13279;SDS011;6708;49.814;8.652;2023-03-14T08:14:25;1.07;;;0.40;;
13279;SDS011;6708;49.814;8.652;2023-03-14T08:16:54;0.30;;;0.20;;
13279;SDS011;6708;49.814;8.652;2023-03-14T08:19:22;1.27;;;0.30;;
13279;SDS011;6708;49.814;8.652;2023-03-14T08:21:51;0.97;;;0.20;;
13279;SDS011;6708;49.814;8.652;2023-03-14T08:24:19;1.17;;;0.20;;
13279;SDS011;6708;49.814;8.652;2023-03-14T08:26:47;0.73;;;0.40;;
13279;SDS011;6708;49.814;8.652;2023-03-14T08:29:16;1.83;;;0.20;;
13279;SDS011;6708;49.814;8.652;2023-03-14T08:31:50;2.10;;;0.30;;
13279;SDS011;6708;49.814;8.652;2023-03-14T08:34:19;0.90;;;0.37;;
13279;SDS011;6708;49.814;8.652;2023-03-14T08:36:48;0.83;;;0.10;;
13279;SDS011;6708;49.814;8.652;2023-03-14T08:39:17;0.60;;;0.33;;
13279;SDS011;6708;49.814;8.652;2023-03-14T08:41:45;0.37;;;0.20;;
13279;SDS011;6708;49.814;8.652;2023-03-14T08:44:13;1.67;;;0.20;;
13279;SDS011;6708;49.814;8.652;2023-03-14T08:46:42;0.73;;;0.30;;
13279;SDS011;6708;49.814;8.652;2023-03-14T08:49:13;0.10;;;0.10;;
13279;SDS011;6708;49.814;8.652;2023-03-14T08:51:41;0.17;;;0.17;;
13279;SDS011;6708;49.814;8.652;2023-03-14T08:54:10;0.27;;;0.27;;
13279;SDS011;6708;49.814;8.652;2023-03-14T08:56:38;0.37;;;0.20;;
13279;SDS011;6708;49.814;8.652;2023-03-14T08:59:08;0.23;;;0.20;;
13279;SDS011;6708;49.814;8.652;2023-03-14T09:01:36;0.20;;;0.20;;
13279;SDS011;6708;49.814;8.652;2023-03-14T09:04:05;0.30;;;0.30;;
13279;SDS011;6708;49.814;8.652;2023-03-14T09:06:37;0.43;;;0.43;;
13279;SDS011;6708;49.814;8.652;2023-03-14T09:09:05;0.20;;;0.20;;
13279;SDS011;6708;49.814;8.652;2023-03-14T09:11:36;0.10;;;0.10;;
13279;SDS011;6708;49.814;8.652;2023-03-14T09:14:05;0.10;;;0.10;;
13279;SDS011;6708;49.814;8.652;2023-03-14T09:16:33;0.20;;;0.20;;
13279;SDS011;6708;49.814;8.652;2023-03-14T09:19:02;0.73;;;0.17;;
13279;SDS011;6708;49.814;8.652;2023-03-14T09:21:31;0.23;;;0.23;;
13279;SDS011;6708;49.814;8.652;2023-03-14T09:24:03;0.10;;;0.10;;
13279;SDS011;6708;49.814;8.652;2023-03-14T09:26:32;0.20;;;0.20;;
13279;SDS011;6708;49.814;8.652;2023-03-14T09:29:03;0.37;;;0.10;;
13279;SDS011;6708;49.814;8.652;2023-03-14T09:31:32;0.30;;;0.20;;
13279;SDS011;6708;49.814;8.652;2023-03-14T09:34:00;0.93;;;0.40;;
13279;SDS011;6708;49.814;8.652;2023-03-14T09:36:29;0.10;;;0.10;;
13279;SDS011;6708;49.814;8.652;2023-03-14T09:38:59;0.93;;;0.30;;
13279;SDS011;6708;49.814;8.652;2023-03-14T09:41:31;0.70;;;0.40;;
13279;SDS011;6708;49.814;8.652;2023-03-14T09:44:02;0.47;;;0.10;;
13279;SDS011;6708;49.814;8.652;2023-03-14T09:46:34;0.00;;;0.00;;
13279;SDS011;6708;49.814;8.652;2023-03-14T09:49:05;0.10;;;0.10;;
13279;SDS011;6708;49.814;8.652;2023-03-14T09:51:38;0.17;;;0.17;;
13279;SDS011;6708;49.814;8.652;2023-03-14T09:54:16;0.20;;;0.07;;
13279;SDS011;6708;49.814;8.652;2023-03-14T09:56:58;0.10;;;0.10;;
13279;SDS011;6708;49.814;8.652;2023-03-14T09:59:27;0.40;;;0.20;;
13279;SDS011;6708;49.814;8.652;2023-03-14T10:01:57;0.20;;;0.10;;
13279;SDS011;6708;49.814;8.652;2023-03-14T10:04:26;0.20;;;0.20;;
13279;SDS011;6708;49.814;8.652;2023-03-14T10:06:57;0.30;;;0.17;;
13279;SDS011;6708;49.814;8.652;2023-03-14T10:09:29;0.17;;;0.17;;
13279;SDS011;6708;49.814;8.652;2023-03-14T10:11:57;0.10;;;0.10;;
13279;SDS011;6708;49.814;8.652;2023-03-14T10:14:31;0.40;;;0.20;;
13279;SDS011;6708;49.814;8.652;2023-03-14T10:17:04;0.10;;;0.10;;
13279;SDS011;6708;49.814;8.652;2023-03-14T10:19:35;0.60;;;0.30;;
13279;SDS011;6708;49.814;8.652;2023-03-14T10:22:04;0.10;;;0.10;;
13279;SDS011;6708;49.814;8.652;2023-03-14T10:24:35;0.60;;;0.20;;
13279;SDS011;6708;49.814;8.652;2023-03-14T10:27:05;0.50;;;0.10;;
13279;SDS011;6708;49.814;8.652;2023-03-14T10:29:50;0.00;;;0.00;;
13279;SDS011;6708;49.814;8.652;2023-03-14T10:32:20;0.10;;;0.10;;
13279;SDS011;6708;49.814;8.652;2023-03-14T10:35:03;0.00;;;0.00;;
13279;SDS011;6708;49.814;8.652;2023-03-14T10:37:34;0.20;;;0.20;;
13279;SDS011;6708;49.814;8.652;2023-03-14T10:40:12;0.10;;;0.00;;
13279;SDS011;6708;49.814;8.652;2023-03-14T10:42:42;0.10;;;0.10;;
13279;SDS011;6708;49.814;8.652;2023-03-14T10:45:22;0.10;;;0.10;;
13279;SDS011;6708;49.814;8.652;2023-03-14T10:48:07;0.07;;;0.07;;
13279;SDS011;6708;49.814;8.652;2023-03-14T10:50:53;0.10;;;0.10;;
13279;SDS011;6708;49.814;8.652;2023-03-14T10:53:23;0.30;;;0.10;;
13279;SDS011;6708;49.814;8.652;2023-03-14T10:55:56;0.10;;;0.10;;
13279;SDS011;6708;49.814;8.652;2023-03-14T10:58:26;0.30;;;0.23;;
13279;SDS011;6708;49.814;8.652;2023-03-14T11:01:00;0.10;;;0.10;;
13279;SDS011;6708;49.814;8.652;2023-03-14T11:03:34;0.20;;;0.10;;
13279;SDS011;6708;49.814;8.652;2023-03-14T11:06:08;0.20;;;0.20;;
13279;SDS011;6708;49.814;8.652;2023-03-14T11:08:41;0.30;;;0.10;;
13279;SDS011;6708;49.814;8.652;2023-03-14T11:11:19;0.10;;;0.10;;
13279;SDS011;6708;49.814;8.652;2023-03-14T11:14:05;0.47;;;0.10;;
13279;SDS011;6708;49.814;8.652;2023-03-14T11:16:43;0.10;;;0.10;;
13279;SDS011;6708;49.814;8.652;2023-03-14T11:19:21;0.10;;;0.10;;
13279;SDS011;6708;49.814;8.652;2023-03-14T11:21:58;0.17;;;0.17;;
13279;SDS011;6708;49.814;8.652;2023-03-14T11:24:32;0.27;;;0.27;;
13279;SDS011;6708;49.814;8.652;2023-03-14T11:27:15;0.30;;;0.30;;
13279;SDS011;6708;49.814;8.652;2023-03-14T11:29:47;0.97;;;0.20;;
13279;SDS011;6708;49.814;8.652;2023-03-14T11:32:24;0.13;;;0.10;;
13279;SDS011;6708;49.814;8.652;2023-03-14T11:35:03;0.20;;;0.20;;
13279;SDS011;6708;49.814;8.652;2023-03-14T11:37:33;2.20;;;0.40;;
13279;SDS011;6708;49.814;8.652;2023-03-14T11:40:05;0.20;;;0.20;;
13279;SDS011;6708;49.814;8.652;2023-03-14T11:42:43;1.10;;;0.30;;
13279;SDS011;6708;49.814;8.652;2023-03-14T11:45:13;0.30;;;0.30;;
13279;SDS011;6708;49.814;8.652;2023-03-14T11:47:45;0.10;;;0.10;;
13279;SDS011;6708;49.814;8.652;2023-03-14T11:50:21;0.20;;;0.20;;
13279;SDS011;6708;49.814;8.652;2023-03-14T11:52:52;0.00;;;0.00;;
13279;SDS011;6708;49.814;8.652;2023-03-14T11:55:24;1.03;;;0.40;;
13279;SDS011;6708;49.814;8.652;2023-03-14T11:57:58;0.00;;;0.00;;
13279;SDS011;6708;49.814;8.652;2023-03-14T12:00:28;0.87;;;0.50;;
13279;SDS011;6708;49.814;8.652;2023-03-14T12:02:57;0.20;;;0.20;;
13279;SDS011;6708;49.814;8.652;2023-03-14T12:05:44;0.30;;;0.30;;
13279;SDS011;6708;49.814;8.652;2023-03-14T12:11:12;0.10;;;0.10;;
13279;SDS011;6708;49.814;8.652;2023-03-14T12:13:45;0.20;;;0.20;;
13279;SDS011;6708;49.814;8.652;2023-03-14T12:16:26;0.10;;;0.10;;
13279;SDS011;6708;49.814;8.652;2023-03-14T12:19:13;0.20;;;0.20;;
13279;SDS011;6708;49.814;8.652;2023-03-14T12:21:49;0.10;;;0.10;;
13279;SDS011;6708;49.814;8.652;2023-03-14T12:24:20;0.10;;;0.10;;
13279;SDS011;6708;49.814;8.652;2023-03-14T12:26:52;0.20;;;0.00;;
13279;SDS011;6708;49.814;8.652;2023-03-14T12:29:24;0.00;;;0.00;;
13279;SDS011;6708;49.814;8.652;2023-03-14T12:32:09;0.10;;;0.10;;
13279;SDS011;6708;49.814;8.652;2023-03-14T12:34:53;0.20;;;0.00;;
13279;SDS011;6708;49.814;8.652;2023-03-14T12:37:25;0.00;;;0.00;;
13279;SDS011;6708;49.814;8.652;2023-03-14T12:40:03;0.00;;;0.00;;
13279;SDS011;6708;49.814;8.652;2023-03-14T12:42:45;0.00;;;0.00;;
13279;SDS011;6708;49.814;8.652;2023-03-14T12:45:26;0.10;;;0.10;;
13279;SDS011;6708;49.814;8.652;2023-03-14T12:48:00;0.10;;;0.10;;
13279;SDS011;6708;49.814;8.652;2023-03-14T12:50:33;0.00;;;0.00;;
13279;SDS011;6708;49.814;8.652;2023-03-14T12:56:23;0.10;;;0.10;;
13279;SDS011;6708;49.814;8.652;2023-03-14T12:59:05;2.67;;;0.30;;
13279;SDS011;6708;49.814;8.652;2023-03-14T13:01:53;0.07;;;0.07;;
13279;SDS011;6708;49.814;8.652;2023-03-14T13:04:26;0.13;;;0.13;;
13279;SDS011;6708;49.814;8.652;2023-03-14T13:06:58;0.00;;;0.00;;
13279;SDS011;6708;49.814;8.652;2023-03-14T13:12:29;0.53;;;0.23;;
13279;SDS011;6708;49.814;8.652;2023-03-14T13:15:02;0.03;;;0.03;;
13279;SDS011;6708;49.814;8.652;2023-03-14T13:17:45;0.00;;;0.00;;
13279;SDS011;6708;49.814;8.652;2023-03-14T13:20:15;0.20;;;0.20;;
13279;SDS011;6708;49.814;8.652;2023-03-14T13:22:47;0.10;;;0.10;;
13279;SDS011;6708;49.814;8.652;2023-03-14T13:25:17;0.10;;;0.10;;
13279;SDS011;6708;49.814;8.652;2023-03-14T13:27:47;0.20;;;0.20;;
13279;SDS011;6708;49.814;8.652;2023-03-14T13:30:17;0.20;;;0.20;;
13279;SDS011;6708;49.814;8.652;2023-03-14T13:32:51;0.20;;;0.20;;
13279;SDS011;6708;49.814;8.652;2023-03-14T13:35:21;1.60;;;0.20;;
13279;SDS011;6708;49.814;8.652;2023-03-14T13:37:53;0.20;;;0.17;;
13279;SDS011;6708;49.814;8.652;2023-03-14T13:40:27;0.30;;;0.30;;
13279;SDS011;6708;49.814;8.652;2023-03-14T13:43:01;0.20;;;0.20;;
13279;SDS011;6708;49.814;8.652;2023-03-14T13:45:41;0.20;;;0.20;;
13279;SDS011;6708;49.814;8.652;2023-03-14T13:48:14;0.10;;;0.10;;
13279;SDS011;6708;49.814;8.652;2023-03-14T13:50:50;0.47;;;0.47;;
13279;SDS011;6708;49.814;8.652;2023-03-14T13:53:21;0.10;;;0.10;;
13279;SDS011;6708;49.814;8.652;2023-03-14T13:55:50;0.70;;;0.50;;
13279;SDS011;6708;49.814;8.652;2023-03-14T13:58:19;0.20;;;0.20;;
13279;SDS011;6708;49.814;8.652;2023-03-14T14:00:54;0.40;;;0.40;;
13279;SDS011;6708;49.814;8.652;2023-03-14T14:03:30;1.90;;;0.77;;
13279;SDS011;6708;49.814;8.652;2023-03-14T14:06:00;0.20;;;0.20;;
13279;SDS011;6708;49.814;8.652;2023-03-14T14:08:29;0.30;;;0.30;;
13279;SDS011;6708;49.814;8.652;2023-03-14T14:10:58;0.20;;;0.20;;
13279;SDS011;6708;49.814;8.652;2023-03-14T14:13:29;0.30;;;0.30;;
13279;SDS011;6708;49.814;8.652;2023-03-14T14:16:00;0.40;;;0.40;;
13279;SDS011;6708;49.814;8.652;2023-03-14T14:18:33;0.87;;;0.60;;
13279;SDS011;6708;49.814;8.652;2023-03-14T14:21:03;0.20;;;0.20;;
13279;SDS011;6708;49.814;8.652;2023-03-14T14:23:32;0.40;;;0.40;;
13279;SDS011;6708;49.814;8.652;2023-03-14T14:26:01;0.30;;;0.30;;
13279;SDS011;6708;49.814;8.652;2023-03-14T14:28:33;0.93;;;0.50;;
13279;SDS011;6708;49.814;8.652;2023-03-14T14:31:17;1.10;;;1.10;;
13279;SDS011;6708;49.814;8.652;2023-03-14T14:33:56;0.77;;;0.77;;
13279;SDS011;6708;49.814;8.652;2023-03-14T14:36:26;0.40;;;0.40;;
13279;SDS011;6708;49.814;8.652;2023-03-14T14:38:59;0.50;;;0.30;;
13279;SDS011;6708;49.814;8.652;2023-03-14T14:41:30;0.17;;;0.17;;
13279;SDS011;6708;49.814;8.652;2023-03-14T14:44:02;0.40;;;0.40;;
13279;SDS011;6708;49.814;8.652;2023-03-14T14:46:32;0.27;;;0.27;;
13279;SDS011;6708;49.814;8.652;2023-03-14T14:49:05;0.47;;;0.47;;
13279;SDS011;6708;49.814;8.652;2023-03-14T14:51:38;0.30;;;0.30;;
13279;SDS011;6708;49.814;8.652;2023-03-14T14:54:11;3.27;;;0.60;;
13279;SDS011;6708;49.814;8.652;2023-03-14T14:56:44;0.30;;;0.30;;
13279;SDS011;6708;49.814;8.652;2023-03-14T14:59:20;0.30;;;0.30;;
13279;SDS011;6708;49.814;8.652;2023-03-14T15:01:55;1.50;;;0.87;;
13279;SDS011;6708;49.814;8.652;2023-03-14T15:04:26;0.40;;;0.40;;
13279;SDS011;6708;49.814;8.652;2023-03-14T15:06:55;0.60;;;0.50;;
13279;SDS011;6708;49.814;8.652;2023-03-14T15:09:23;0.53;;;0.53;;
13279;SDS011;6708;49.814;8.652;2023-03-14T15:11:52;0.50;;;0.50;;
13279;SDS011;6708;49.814;8.652;2023-03-14T15:14:20;1.03;;;0.47;;
13279;SDS011;6708;49.814;8.652;2023-03-14T15:16:49;3.67;;;1.00;;
13279;SDS011;6708;49.814;8.652;2023-03-14T15:19:19;0.70;;;0.70;;
13279;SDS011;6708;49.814;8.652;2023-03-14T15:21:51;1.50;;;1.07;;
13279;SDS011;6708;49.814;8.652;2023-03-14T15:24:20;1.07;;;0.60;;
13279;SDS011;6708;49.814;8.652;2023-03-14T15:26:49;0.70;;;0.70;;
13279;SDS011;6708;49.814;8.652;2023-03-14T15:29:17;0.50;;;0.50;;
13279;SDS011;6708;49.814;8.652;2023-03-14T15:31:46;0.50;;;0.50;;
13279;SDS011;6708;49.814;8.652;2023-03-14T15:34:14;0.87;;;0.70;;
13279;SDS011;6708;49.814;8.652;2023-03-14T15:36:43;0.43;;;0.43;;
13279;SDS011;6708;49.814;8.652;2023-03-14T15:39:14;0.80;;;0.80;;
13279;SDS011;6708;49.814;8.652;2023-03-14T15:41:42;0.70;;;0.40;;
13279;SDS011;6708;49.814;8.652;2023-03-14T15:44:11;0.40;;;0.40;;
13279;SDS011;6708;49.814;8.652;2023-03-14T15:46:39;0.57;;;0.47;;